Aviation Digital Data Service (ADDS)

Output produced by METARs form (1825 UTC 16 August 2018)
found at http://www.aviationweather.gov/adds/metars/
 
TAF MYGF 161630Z 1618/1718 13008KT 9999 VCSH FEW015CB SCT020
       
TAF MYNN 161630Z 1618/1718 12014KT 9999 FEW016CB SCT020 BKN200